sensor_id;sensor_type;location;lat;lon;timestamp;noise_LAeq;noise_LA_min;noise_LA_max;noise_LA01;noise_LA95
70077;Laerm;57448;51.490;5.436;2023-02-28T00:00:43;37.13;33.70;44.44;;
70077;Laerm;57448;51.490;5.436;2023-02-28T00:03:05;38.80;33.46;43.99;;
70077;Laerm;57448;51.490;5.436;2023-02-28T00:05:27;39.28;34.89;47.37;;
70077;Laerm;57448;51.490;5.436;2023-02-28T00:07:49;39.68;35.15;44.22;;
70077;Laerm;57448;51.490;5.436;2023-02-28T00:10:13;38.16;34.57;48.57;;
70077;Laerm;57448;51.490;5.436;2023-02-28T00:12:36;38.79;35.00;43.64;;
70077;Laerm;57448;51.490;5.436;2023-02-28T00:14:57;37.62;34.20;45.13;;
70077;Laerm;57448;51.490;5.436;2023-02-28T00:17:19;39.27;35.11;47.01;;
70077;Laerm;57448;51.490;5.436;2023-02-28T00:19:41;38.92;34.87;45.64;;
70077;Laerm;57448;51.490;5.436;2023-02-28T00:22:03;39.06;34.35;45.41;;
70077;Laerm;57448;51.490;5.436;2023-02-28T00:24:24;37.64;34.18;42.79;;
70077;Laerm;57448;51.490;5.436;2023-02-28T00:26:47;37.68;34.10;46.45;;
70077;Laerm;57448;51.490;5.436;2023-02-28T00:29:09;39.53;34.47;48.45;;
70077;Laerm;57448;51.490;5.436;2023-02-28T00:31:31;38.84;35.41;44.94;;
70077;Laerm;57448;51.490;5.436;2023-02-28T00:33:53;37.34;33.83;43.11;;
70077;Laerm;57448;51.490;5.436;2023-02-28T00:36:14;38.64;35.02;44.01;;
70077;Laerm;57448;51.490;5.436;2023-02-28T00:38:36;37.89;34.24;44.82;;
70077;Laerm;57448;51.490;5.436;2023-02-28T00:40:58;36.61;32.81;45.37;;
70077;Laerm;57448;51.490;5.436;2023-02-28T00:43:26;37.52;34.06;46.66;;
70077;Laerm;57448;51.490;5.436;2023-02-28T00:45:47;37.38;33.04;43.45;;
70077;Laerm;57448;51.490;5.436;2023-02-28T00:48:09;37.29;33.45;42.83;;
70077;Laerm;57448;51.490;5.436;2023-02-28T00:50:30;38.89;34.33;44.10;;
70077;Laerm;57448;51.490;5.436;2023-02-28T00:52:52;37.34;33.70;43.64;;
70077;Laerm;57448;51.490;5.436;2023-02-28T00:55:14;36.87;33.16;41.62;;
70077;Laerm;57448;51.490;5.436;2023-02-28T00:57:36;37.23;34.10;43.53;;
70077;Laerm;57448;51.490;5.436;2023-02-28T00:59:59;39.02;34.14;49.29;;
70077;Laerm;57448;51.490;5.436;2023-02-28T01:02:21;37.57;32.76;45.82;;
70077;Laerm;57448;51.490;5.436;2023-02-28T01:04:43;36.35;32.67;40.53;;
70077;Laerm;57448;51.490;5.436;2023-02-28T01:07:04;37.27;33.74;43.36;;
70077;Laerm;57448;51.490;5.436;2023-02-28T01:09:26;36.21;32.52;42.16;;
70077;Laerm;57448;51.490;5.436;2023-02-28T01:11:48;37.09;33.84;42.71;;
70077;Laerm;57448;51.490;5.436;2023-02-28T01:14:11;36.71;34.03;41.47;;
70077;Laerm;57448;51.490;5.436;2023-02-28T01:16:34;37.12;33.30;43.83;;
70077;Laerm;57448;51.490;5.436;2023-02-28T01:18:56;37.48;34.12;43.57;;
70077;Laerm;57448;51.490;5.436;2023-02-28T01:21:19;37.26;33.90;42.62;;
70077;Laerm;57448;51.490;5.436;2023-02-28T01:23:41;36.03;32.90;43.51;;
70077;Laerm;57448;51.490;5.436;2023-02-28T01:26:04;36.50;33.01;41.13;;
70077;Laerm;57448;51.490;5.436;2023-02-28T01:28:25;37.51;33.87;44.86;;
70077;Laerm;57448;51.490;5.436;2023-02-28T01:30:48;35.44;32.37;40.11;;
70077;Laerm;57448;51.490;5.436;2023-02-28T01:33:11;37.63;32.86;46.50;;
70077;Laerm;57448;51.490;5.436;2023-02-28T01:35:32;37.98;34.05;44.80;;
70077;Laerm;57448;51.490;5.436;2023-02-28T01:37:54;37.67;33.97;43.92;;
70077;Laerm;57448;51.490;5.436;2023-02-28T01:40:16;37.51;34.13;43.23;;
70077;Laerm;57448;51.490;5.436;2023-02-28T01:42:38;35.92;32.59;43.39;;
70077;Laerm;57448;51.490;5.436;2023-02-28T01:45:01;37.79;33.93;42.73;;
70077;Laerm;57448;51.490;5.436;2023-02-28T01:47:23;37.70;33.86;41.98;;
70077;Laerm;57448;51.490;5.436;2023-02-28T01:49:47;37.26;33.98;41.74;;
70077;Laerm;57448;51.490;5.436;2023-02-28T01:52:09;36.26;32.47;42.95;;
70077;Laerm;57448;51.490;5.436;2023-02-28T01:54:38;36.91;32.83;42.68;;
70077;Laerm;57448;51.490;5.436;2023-02-28T01:57:00;36.64;33.14;43.04;;
70077;Laerm;57448;51.490;5.436;2023-02-28T01:59:24;36.82;32.84;43.14;;
70077;Laerm;57448;51.490;5.436;2023-02-28T02:01:48;37.71;33.55;45.66;;
70077;Laerm;57448;51.490;5.436;2023-02-28T02:04:10;37.43;32.79;45.83;;
70077;Laerm;57448;51.490;5.436;2023-02-28T02:06:34;35.05;32.11;43.89;;
70077;Laerm;57448;51.490;5.436;2023-02-28T02:08:58;37.28;33.22;46.79;;
70077;Laerm;57448;51.490;5.436;2023-02-28T02:11:20;36.76;33.05;41.52;;
70077;Laerm;57448;51.490;5.436;2023-02-28T02:13:50;36.74;33.65;43.85;;
70077;Laerm;57448;51.490;5.436;2023-02-28T02:16:20;37.04;33.81;41.96;;
70077;Laerm;57448;51.490;5.436;2023-02-28T02:18:46;37.74;34.14;43.31;;
70077;Laerm;57448;51.490;5.436;2023-02-28T02:21:25;37.46;32.51;42.24;;
70077;Laerm;57448;51.490;5.436;2023-02-28T02:29:33;37.20;33.39;46.99;;
70077;Laerm;57448;51.490;5.436;2023-02-28T02:34:44;36.22;32.08;42.76;;
70077;Laerm;57448;51.490;5.436;2023-02-28T02:37:13;37.38;33.50;46.44;;
70077;Laerm;57448;51.490;5.436;2023-02-28T02:39:37;36.84;33.53;41.73;;
70077;Laerm;57448;51.490;5.436;2023-02-28T02:42:03;39.06;34.19;43.92;;
70077;Laerm;57448;51.490;5.436;2023-02-28T02:44:27;37.21;33.80;45.72;;
70077;Laerm;57448;51.490;5.436;2023-02-28T02:46:50;38.57;34.19;44.78;;
70077;Laerm;57448;51.490;5.436;2023-02-28T02:49:15;37.87;33.47;44.81;;
70077;Laerm;57448;51.490;5.436;2023-02-28T02:51:39;39.33;35.66;44.83;;
70077;Laerm;57448;51.490;5.436;2023-02-28T02:54:04;37.43;33.96;44.46;;
70077;Laerm;57448;51.490;5.436;2023-02-28T02:56:28;37.42;32.67;44.76;;
70077;Laerm;57448;51.490;5.436;2023-02-28T02:58:51;36.07;32.82;43.82;;
70077;Laerm;57448;51.490;5.436;2023-02-28T03:01:18;37.92;34.04;43.21;;
70077;Laerm;57448;51.490;5.436;2023-02-28T03:03:48;37.00;33.15;43.87;;
70077;Laerm;57448;51.490;5.436;2023-02-28T03:06:09;39.31;34.28;45.27;;
70077;Laerm;57448;51.490;5.436;2023-02-28T03:08:34;38.95;35.24;44.59;;
70077;Laerm;57448;51.490;5.436;2023-02-28T03:10:56;39.06;34.30;43.99;;
70077;Laerm;57448;51.490;5.436;2023-02-28T03:13:32;38.66;34.56;44.49;;
70077;Laerm;57448;51.490;5.436;2023-02-28T03:16:02;37.51;33.66;43.40;;
70077;Laerm;57448;51.490;5.436;2023-02-28T03:18:30;37.18;33.72;44.59;;
70077;Laerm;57448;51.490;5.436;2023-02-28T03:20:59;37.62;33.38;45.09;;
70077;Laerm;57448;51.490;5.436;2023-02-28T03:23:27;39.44;34.36;45.56;;
70077;Laerm;57448;51.490;5.436;2023-02-28T03:25:59;38.66;34.22;43.52;;
70077;Laerm;57448;51.490;5.436;2023-02-28T03:28:27;37.99;34.43;45.59;;
70077;Laerm;57448;51.490;5.436;2023-02-28T03:30:52;38.79;34.54;50.48;;
70077;Laerm;57448;51.490;5.436;2023-02-28T03:33:17;40.29;35.82;51.63;;
70077;Laerm;57448;51.490;5.436;2023-02-28T03:35:43;39.92;36.07;46.66;;
70077;Laerm;57448;51.490;5.436;2023-02-28T03:38:08;40.83;35.94;45.28;;
70077;Laerm;57448;51.490;5.436;2023-02-28T03:40:34;39.80;34.63;45.71;;
70077;Laerm;57448;51.490;5.436;2023-02-28T03:43:00;38.43;34.86;44.38;;
70077;Laerm;57448;51.490;5.436;2023-02-28T03:45:24;39.79;34.06;47.96;;
70077;Laerm;57448;51.490;5.436;2023-02-28T03:47:48;38.86;35.14;44.07;;
70077;Laerm;57448;51.490;5.436;2023-02-28T03:50:13;38.96;34.92;45.74;;
70077;Laerm;57448;51.490;5.436;2023-02-28T03:52:37;40.19;36.34;44.99;;
70077;Laerm;57448;51.490;5.436;2023-02-28T03:55:00;40.72;35.71;45.88;;
70077;Laerm;57448;51.490;5.436;2023-02-28T03:57:27;40.03;35.45;50.75;;
70077;Laerm;57448;51.490;5.436;2023-02-28T03:59:56;39.39;35.80;44.44;;
70077;Laerm;57448;51.490;5.436;2023-02-28T04:02:18;40.88;36.43;47.35;;
70077;Laerm;57448;51.490;5.436;2023-02-28T04:04:40;41.41;36.44;47.16;;
70077;Laerm;57448;51.490;5.436;2023-02-28T04:07:08;40.07;35.65;47.43;;
70077;Laerm;57448;51.490;5.436;2023-02-28T04:09:32;41.00;37.43;45.28;;
70077;Laerm;57448;51.490;5.436;2023-02-28T04:11:54;41.09;36.60;48.36;;
70077;Laerm;57448;51.490;5.436;2023-02-28T04:14:16;40.67;36.05;48.81;;
70077;Laerm;57448;51.490;5.436;2023-02-28T04:16:41;41.62;36.96;45.55;;
70077;Laerm;57448;51.490;5.436;2023-02-28T04:19:03;42.01;38.05;46.80;;
70077;Laerm;57448;51.490;5.436;2023-02-28T04:21:25;40.75;36.36;45.86;;
70077;Laerm;57448;51.490;5.436;2023-02-28T04:23:47;41.25;37.23;48.38;;
70077;Laerm;57448;51.490;5.436;2023-02-28T04:26:09;41.97;38.94;45.15;;
70077;Laerm;57448;51.490;5.436;2023-02-28T04:28:30;42.07;38.24;47.20;;
70077;Laerm;57448;51.490;5.436;2023-02-28T04:30:55;41.79;37.82;47.66;;
70077;Laerm;57448;51.490;5.436;2023-02-28T04:33:18;41.48;38.03;45.95;;
70077;Laerm;57448;51.490;5.436;2023-02-28T04:35:40;43.12;39.16;50.68;;
70077;Laerm;57448;51.490;5.436;2023-02-28T04:38:01;41.41;37.72;45.24;;
70077;Laerm;57448;51.490;5.436;2023-02-28T04:40:23;42.99;39.49;48.16;;
70077;Laerm;57448;51.490;5.436;2023-02-28T04:42:45;42.27;38.29;46.75;;
70077;Laerm;57448;51.490;5.436;2023-02-28T04:45:07;42.59;39.12;48.99;;
70077;Laerm;57448;51.490;5.436;2023-02-28T04:47:30;44.15;39.72;55.96;;
70077;Laerm;57448;51.490;5.436;2023-02-28T04:49:53;45.21;38.96;58.87;;
70077;Laerm;57448;51.490;5.436;2023-02-28T04:52:15;44.06;39.54;55.88;;
70077;Laerm;57448;51.490;5.436;2023-02-28T04:54:36;44.41;38.59;54.56;;
70077;Laerm;57448;51.490;5.436;2023-02-28T04:56:59;44.55;40.81;51.89;;
70077;Laerm;57448;51.490;5.436;2023-02-28T04:59:21;43.44;39.00;48.92;;
70077;Laerm;57448;51.490;5.436;2023-02-28T05:01:45;44.53;40.82;51.06;;
70077;Laerm;57448;51.490;5.436;2023-02-28T05:04:08;44.66;40.96;49.71;;
70077;Laerm;57448;51.490;5.436;2023-02-28T05:06:32;43.85;40.37;47.27;;
70077;Laerm;57448;51.490;5.436;2023-02-28T05:08:54;44.31;40.89;48.45;;
70077;Laerm;57448;51.490;5.436;2023-02-28T05:11:16;44.03;40.31;47.70;;
70077;Laerm;57448;51.490;5.436;2023-02-28T05:13:39;43.70;39.68;47.62;;
70077;Laerm;57448;51.490;5.436;2023-02-28T05:16:00;43.99;39.96;47.95;;
70077;Laerm;57448;51.490;5.436;2023-02-28T05:18:22;44.48;41.20;48.66;;
70077;Laerm;57448;51.490;5.436;2023-02-28T05:20:43;45.50;41.38;49.29;;
70077;Laerm;57448;51.490;5.436;2023-02-28T05:23:08;45.32;41.35;50.25;;
70077;Laerm;57448;51.490;5.436;2023-02-28T05:25:30;45.53;41.69;50.17;;
70077;Laerm;57448;51.490;5.436;2023-02-28T05:27:51;46.49;43.06;51.25;;
70077;Laerm;57448;51.490;5.436;2023-02-28T05:30:13;46.66;42.49;51.59;;
70077;Laerm;57448;51.490;5.436;2023-02-28T05:32:35;45.33;41.47;49.81;;
70077;Laerm;57448;51.490;5.436;2023-02-28T05:34:57;45.68;41.15;50.81;;
70077;Laerm;57448;51.490;5.436;2023-02-28T05:37:18;46.32;43.31;50.32;;
70077;Laerm;57448;51.490;5.436;2023-02-28T05:39:42;46.34;42.85;53.61;;
70077;Laerm;57448;51.490;5.436;2023-02-28T05:42:03;46.37;42.61;54.46;;
70077;Laerm;57448;51.490;5.436;2023-02-28T05:44:25;47.10;43.07;52.30;;
70077;Laerm;57448;51.490;5.436;2023-02-28T05:46:47;46.99;43.43;54.61;;
70077;Laerm;57448;51.490;5.436;2023-02-28T05:49:08;47.51;43.74;52.89;;
70077;Laerm;57448;51.490;5.436;2023-02-28T05:51:30;47.91;43.53;59.99;;
70077;Laerm;57448;51.490;5.436;2023-02-28T05:53:52;48.67;43.59;61.47;;
70077;Laerm;57448;51.490;5.436;2023-02-28T05:56:15;48.23;44.14;57.48;;
70077;Laerm;57448;51.490;5.436;2023-02-28T05:58:37;48.37;43.05;62.67;;
70077;Laerm;57448;51.490;5.436;2023-02-28T06:00:59;47.06;43.24;54.63;;
70077;Laerm;57448;51.490;5.436;2023-02-28T06:03:21;46.88;42.87;60.66;;
70077;Laerm;57448;51.490;5.436;2023-02-28T06:05:43;61.40;43.70;73.84;;
70077;Laerm;57448;51.490;5.436;2023-02-28T06:08:05;47.48;42.69;63.61;;
70077;Laerm;57448;51.490;5.436;2023-02-28T06:10:27;49.45;43.35;62.50;;
70077;Laerm;57448;51.490;5.436;2023-02-28T06:12:50;62.76;44.49;76.26;;
70077;Laerm;57448;51.490;5.436;2023-02-28T06:15:12;48.32;44.03;65.03;;
70077;Laerm;57448;51.490;5.436;2023-02-28T06:17:34;49.41;44.39;66.60;;
70077;Laerm;57448;51.490;5.436;2023-02-28T06:19:56;51.87;44.38;68.99;;
70077;Laerm;57448;51.490;5.436;2023-02-28T06:22:17;52.12;43.99;68.11;;
70077;Laerm;57448;51.490;5.436;2023-02-28T06:24:39;50.57;45.02;63.14;;
70077;Laerm;57448;51.490;5.436;2023-02-28T06:27:01;62.96;45.38;75.31;;
70077;Laerm;57448;51.490;5.436;2023-02-28T06:29:26;48.80;44.84;62.12;;
70077;Laerm;57448;51.490;5.436;2023-02-28T06:31:48;47.88;43.24;61.11;;
70077;Laerm;57448;51.490;5.436;2023-02-28T06:34:10;47.89;44.60;61.24;;
70077;Laerm;57448;51.490;5.436;2023-02-28T06:36:32;48.53;45.14;56.65;;
70077;Laerm;57448;51.490;5.436;2023-02-28T06:38:53;48.40;44.52;58.64;;
70077;Laerm;57448;51.490;5.436;2023-02-28T06:41:16;62.75;45.60;76.48;;
70077;Laerm;57448;51.490;5.436;2023-02-28T06:43:39;49.21;44.72;67.37;;
70077;Laerm;57448;51.490;5.436;2023-02-28T06:46:03;49.17;45.04;63.77;;
70077;Laerm;57448;51.490;5.436;2023-02-28T06:48:25;48.57;44.10;66.02;;
70077;Laerm;57448;51.490;5.436;2023-02-28T06:50:47;55.16;44.07;68.53;;
70077;Laerm;57448;51.490;5.436;2023-02-28T06:53:09;48.45;44.37;60.46;;
70077;Laerm;57448;51.490;5.436;2023-02-28T06:55:30;62.55;44.33;74.75;;
70077;Laerm;57448;51.490;5.436;2023-02-28T06:57:52;49.00;43.54;70.06;;
70077;Laerm;57448;51.490;5.436;2023-02-28T07:00:15;47.06;43.64;53.36;;
70077;Laerm;57448;51.490;5.436;2023-02-28T07:02:38;46.62;42.54;62.87;;
70077;Laerm;57448;51.490;5.436;2023-02-28T07:05:00;46.69;42.60;59.11;;
70077;Laerm;57448;51.490;5.436;2023-02-28T07:07:21;47.71;43.56;60.95;;
70077;Laerm;57448;51.490;5.436;2023-02-28T07:09:43;46.82;42.91;55.88;;
70077;Laerm;57448;51.490;5.436;2023-02-28T07:12:05;47.13;43.04;63.67;;
70077;Laerm;57448;51.490;5.436;2023-02-28T07:14:26;45.88;42.39;53.53;;
70077;Laerm;57448;51.490;5.436;2023-02-28T07:16:48;45.13;41.62;53.66;;
70077;Laerm;57448;51.490;5.436;2023-02-28T07:19:12;45.73;42.26;65.61;;
70077;Laerm;57448;51.490;5.436;2023-02-28T07:21:33;45.29;42.30;50.90;;
70077;Laerm;57448;51.490;5.436;2023-02-28T07:23:55;47.02;42.14;63.91;;
70077;Laerm;57448;51.490;5.436;2023-02-28T07:26:17;48.84;41.38;65.97;;
70077;Laerm;57448;51.490;5.436;2023-02-28T07:28:40;47.13;42.26;66.89;;
70077;Laerm;57448;51.490;5.436;2023-02-28T07:31:03;49.64;42.81;71.06;;
70077;Laerm;57448;51.490;5.436;2023-02-28T07:33:25;48.48;42.53;69.14;;
70077;Laerm;57448;51.490;5.436;2023-02-28T07:35:48;50.34;42.61;72.53;;
70077;Laerm;57448;51.490;5.436;2023-02-28T07:38:09;45.68;40.70;52.55;;
70077;Laerm;57448;51.490;5.436;2023-02-28T07:40:32;44.86;41.39;55.64;;
70077;Laerm;57448;51.490;5.436;2023-02-28T07:42:54;44.70;41.60;59.85;;
70077;Laerm;57448;51.490;5.436;2023-02-28T07:45:16;46.33;40.67;66.83;;
70077;Laerm;57448;51.490;5.436;2023-02-28T07:47:37;45.60;40.69;60.80;;
70077;Laerm;57448;51.490;5.436;2023-02-28T07:49:59;46.24;39.13;64.57;;
70077;Laerm;57448;51.490;5.436;2023-02-28T07:52:22;47.65;39.51;67.01;;
70077;Laerm;57448;51.490;5.436;2023-02-28T07:54:44;47.61;39.71;74.45;;
70077;Laerm;57448;51.490;5.436;2023-02-28T07:57:06;42.08;38.56;58.20;;
70077;Laerm;57448;51.490;5.436;2023-02-28T07:59:27;43.45;39.75;59.96;;
70077;Laerm;57448;51.490;5.436;2023-02-28T08:01:49;43.27;39.08;57.21;;
70077;Laerm;57448;51.490;5.436;2023-02-28T08:04:11;42.74;39.49;53.63;;
70077;Laerm;57448;51.490;5.436;2023-02-28T08:06:33;60.88;39.88;74.72;;
70077;Laerm;57448;51.490;5.436;2023-02-28T08:08:56;47.26;39.04;65.36;;
70077;Laerm;57448;51.490;5.436;2023-02-28T08:11:17;45.59;38.04;64.24;;
70077;Laerm;57448;51.490;5.436;2023-02-28T08:13:39;42.93;38.51;60.32;;
70077;Laerm;57448;51.490;5.436;2023-02-28T08:16:02;58.13;38.26;73.73;;
70077;Laerm;57448;51.490;5.436;2023-02-28T08:18:24;43.30;39.04;53.12;;
70077;Laerm;57448;51.490;5.436;2023-02-28T08:20:46;43.03;38.24;62.41;;
70077;Laerm;57448;51.490;5.436;2023-02-28T08:23:07;45.09;37.73;62.39;;
70077;Laerm;57448;51.490;5.436;2023-02-28T08:25:30;46.19;38.23;67.79;;
70077;Laerm;57448;51.490;5.436;2023-02-28T08:27:52;47.49;37.86;65.70;;
70077;Laerm;57448;51.490;5.436;2023-02-28T08:30:14;45.36;37.38;65.81;;
70077;Laerm;57448;51.490;5.436;2023-02-28T08:32:36;43.43;38.22;63.83;;
70077;Laerm;57448;51.490;5.436;2023-02-28T08:34:57;42.08;38.43;55.19;;
70077;Laerm;57448;51.490;5.436;2023-02-28T08:37:19;42.87;38.64;54.32;;
70077;Laerm;57448;51.490;5.436;2023-02-28T08:39:40;59.71;39.14;77.25;;
70077;Laerm;57448;51.490;5.436;2023-02-28T08:42:04;45.32;37.79;62.15;;
70077;Laerm;57448;51.490;5.436;2023-02-28T08:44:25;44.39;38.87;67.50;;
70077;Laerm;57448;51.490;5.436;2023-02-28T08:46:47;42.92;38.71;55.97;;
70077;Laerm;57448;51.490;5.436;2023-02-28T08:49:09;42.98;36.97;53.83;;
70077;Laerm;57448;51.490;5.436;2023-02-28T08:51:32;54.64;38.05;72.32;;
70077;Laerm;57448;51.490;5.436;2023-02-28T08:53:53;44.32;38.54;65.00;;
70077;Laerm;57448;51.490;5.436;2023-02-28T08:56:16;45.59;38.12;67.39;;
70077;Laerm;57448;51.490;5.436;2023-02-28T08:58:39;57.59;38.67;75.88;;
70077;Laerm;57448;51.490;5.436;2023-02-28T09:01:06;42.60;37.98;58.79;;
70077;Laerm;57448;51.490;5.436;2023-02-28T09:03:28;51.54;37.88;72.03;;
70077;Laerm;57448;51.490;5.436;2023-02-28T09:05:54;43.34;38.52;56.21;;
70077;Laerm;57448;51.490;5.436;2023-02-28T09:08:15;44.07;38.77;61.06;;
70077;Laerm;57448;51.490;5.436;2023-02-28T09:10:37;42.86;37.42;60.62;;
70077;Laerm;57448;51.490;5.436;2023-02-28T09:12:59;43.48;37.75;58.61;;
70077;Laerm;57448;51.490;5.436;2023-02-28T09:15:22;44.23;37.90;60.14;;
70077;Laerm;57448;51.490;5.436;2023-02-28T09:17:43;43.10;37.69;54.42;;
70077;Laerm;57448;51.490;5.436;2023-02-28T09:20:05;51.34;38.71;76.07;;
70077;Laerm;57448;51.490;5.436;2023-02-28T09:22:27;47.82;37.79;69.19;;
70077;Laerm;57448;51.490;5.436;2023-02-28T09:24:47;52.12;38.24;73.27;;
70077;Laerm;57448;51.490;5.436;2023-02-28T09:27:07;43.44;39.44;56.66;;
70077;Laerm;57448;51.490;5.436;2023-02-28T09:29:27;43.82;38.46;60.43;;
70077;Laerm;57448;51.490;5.436;2023-02-28T09:31:49;45.64;37.92;73.35;;
70077;Laerm;57448;51.490;5.436;2023-02-28T09:34:09;45.49;37.28;70.71;;
70077;Laerm;57448;51.490;5.436;2023-02-28T09:36:29;44.10;38.39;60.14;;
70077;Laerm;57448;51.490;5.436;2023-02-28T09:38:49;45.20;39.52;70.96;;
70077;Laerm;57448;51.490;5.436;2023-02-28T09:41:12;43.40;38.18;64.76;;
70077;Laerm;57448;51.490;5.436;2023-02-28T09:43:33;43.35;38.45;56.17;;
70077;Laerm;57448;51.490;5.436;2023-02-28T09:45:56;42.90;37.28;60.24;;
70077;Laerm;57448;51.490;5.436;2023-02-28T09:48:21;51.81;37.04;75.98;;
70077;Laerm;57448;51.490;5.436;2023-02-28T09:50:43;49.77;38.52;72.01;;
70077;Laerm;57448;51.490;5.436;2023-02-28T09:53:10;44.34;37.45;70.56;;
70077;Laerm;57448;51.490;5.436;2023-02-28T09:55:36;43.62;38.19;62.73;;
70077;Laerm;57448;51.490;5.436;2023-02-28T09:57:58;44.50;37.80;65.74;;
70077;Laerm;57448;51.490;5.436;2023-02-28T10:00:20;41.06;37.25;50.71;;
70077;Laerm;57448;51.490;5.436;2023-02-28T10:03:01;48.48;37.06;68.92;;
70077;Laerm;57448;51.490;5.436;2023-02-28T10:05:26;42.73;38.12;62.86;;
70077;Laerm;57448;51.490;5.436;2023-02-28T10:07:59;44.70;37.98;64.93;;
70077;Laerm;57448;51.490;5.436;2023-02-28T10:10:21;60.21;38.51;80.41;;
70077;Laerm;57448;51.490;5.436;2023-02-28T10:12:43;45.20;39.01;56.43;;
70077;Laerm;57448;51.490;5.436;2023-02-28T10:15:05;48.18;37.44;64.31;;
70077;Laerm;57448;51.490;5.436;2023-02-28T10:17:26;45.58;37.74;63.29;;
70077;Laerm;57448;51.490;5.436;2023-02-28T10:19:48;41.62;36.31;61.20;;
70077;Laerm;57448;51.490;5.436;2023-02-28T10:22:11;41.03;37.72;55.63;;
70077;Laerm;57448;51.490;5.436;2023-02-28T10:24:35;42.71;37.07;57.35;;
70077;Laerm;57448;51.490;5.436;2023-02-28T10:26:56;48.17;36.46;79.27;;
70077;Laerm;57448;51.490;5.436;2023-02-28T10:29:19;43.12;37.16;63.38;;
70077;Laerm;57448;51.490;5.436;2023-02-28T10:31:39;46.47;36.90;70.89;;
70077;Laerm;57448;51.490;5.436;2023-02-28T10:33:59;52.70;38.48;79.35;;
70077;Laerm;57448;51.490;5.436;2023-02-28T10:36:20;52.04;38.75;66.74;;
70077;Laerm;57448;51.490;5.436;2023-02-28T10:38:43;53.81;36.67;73.84;;
70077;Laerm;57448;51.490;5.436;2023-02-28T10:41:03;43.99;36.93;58.71;;
70077;Laerm;57448;51.490;5.436;2023-02-28T10:43:24;52.11;37.96;71.46;;
70077;Laerm;57448;51.490;5.436;2023-02-28T10:45:51;54.84;36.49;79.98;;
70077;Laerm;57448;51.490;5.436;2023-02-28T10:48:26;44.03;37.75;65.15;;
70077;Laerm;57448;51.490;5.436;2023-02-28T10:50:50;51.97;38.53;73.72;;
70077;Laerm;57448;51.490;5.436;2023-02-28T10:53:15;50.14;38.74;69.19;;
70077;Laerm;57448;51.490;5.436;2023-02-28T10:55:37;50.69;38.89;76.73;;
70077;Laerm;57448;51.490;5.436;2023-02-28T10:57:58;48.19;38.91;70.27;;
70077;Laerm;57448;51.490;5.436;2023-02-28T11:00:18;47.40;37.34;69.15;;
70077;Laerm;57448;51.490;5.436;2023-02-28T11:02:40;46.42;37.88;72.20;;
70077;Laerm;57448;51.490;5.436;2023-02-28T11:05:02;45.65;38.83;61.56;;
70077;Laerm;57448;51.490;5.436;2023-02-28T11:07:23;44.39;38.48;60.14;;
70077;Laerm;57448;51.490;5.436;2023-02-28T11:09:45;45.25;38.93;66.51;;
70077;Laerm;57448;51.490;5.436;2023-02-28T11:12:08;61.20;38.42;79.15;;
70077;Laerm;57448;51.490;5.436;2023-02-28T11:14:40;48.22;38.46;71.32;;
70077;Laerm;57448;51.490;5.436;2023-02-28T11:17:12;48.13;38.90;78.45;;
70077;Laerm;57448;51.490;5.436;2023-02-28T11:19:33;47.29;39.46;65.20;;
70077;Laerm;57448;51.490;5.436;2023-02-28T11:21:58;52.93;38.65;65.49;;
70077;Laerm;57448;51.490;5.436;2023-02-28T11:24:21;43.49;38.91;60.75;;
70077;Laerm;57448;51.490;5.436;2023-02-28T11:26:44;46.58;39.03;65.08;;
70077;Laerm;57448;51.490;5.436;2023-02-28T11:29:19;42.28;37.32;57.46;;
70077;Laerm;57448;51.490;5.436;2023-02-28T11:31:39;46.83;37.02;69.22;;
70077;Laerm;57448;51.490;5.436;2023-02-28T11:33:59;49.82;37.23;77.16;;
70077;Laerm;57448;51.490;5.436;2023-02-28T11:36:20;45.04;36.88;66.21;;
70077;Laerm;57448;51.490;5.436;2023-02-28T11:38:43;51.14;37.57;75.07;;
70077;Laerm;57448;51.490;5.436;2023-02-28T11:41:06;46.94;38.24;68.56;;
70077;Laerm;57448;51.490;5.436;2023-02-28T11:43:32;48.19;38.46;72.44;;
70077;Laerm;57448;51.490;5.436;2023-02-28T11:45:58;50.14;38.34;74.77;;
70077;Laerm;57448;51.490;5.436;2023-02-28T11:48:21;49.28;37.97;68.12;;
70077;Laerm;57448;51.490;5.436;2023-02-28T11:50:45;47.69;37.12;73.72;;
70077;Laerm;57448;51.490;5.436;2023-02-28T11:53:10;44.17;37.29;61.38;;
70077;Laerm;57448;51.490;5.436;2023-02-28T11:55:35;45.82;37.65;58.45;;
70077;Laerm;57448;51.490;5.436;2023-02-28T11:58:11;45.05;37.26;60.77;;
70077;Laerm;57448;51.490;5.436;2023-02-28T12:00:45;48.35;36.58;63.78;;
70077;Laerm;57448;51.490;5.436;2023-02-28T12:03:15;51.66;36.50;73.35;;
70077;Laerm;57448;51.490;5.436;2023-02-28T12:05:37;60.62;37.10;77.43;;
70077;Laerm;57448;51.490;5.436;2023-02-28T12:08:08;66.34;56.23;73.47;;
70077;Laerm;57448;51.490;5.436;2023-02-28T12:10:35;69.54;57.21;79.58;;
70077;Laerm;57448;51.490;5.436;2023-02-28T12:13:03;67.83;55.56;81.15;;
70077;Laerm;57448;51.490;5.436;2023-02-28T12:15:38;64.04;56.87;76.85;;
70077;Laerm;57448;51.490;5.436;2023-02-28T12:18:08;61.74;37.81;74.48;;
70077;Laerm;57448;51.490;5.436;2023-02-28T12:20:34;43.26;36.93;65.78;;
70077;Laerm;57448;51.490;5.436;2023-02-28T12:23:00;47.56;36.98;74.21;;
70077;Laerm;57448;51.490;5.436;2023-02-28T12:27:57;49.31;37.23;70.07;;
70077;Laerm;57448;51.490;5.436;2023-02-28T12:30:19;49.87;36.80;75.17;;
70077;Laerm;57448;51.490;5.436;2023-02-28T12:32:41;53.26;37.75;72.43;;
70077;Laerm;57448;51.490;5.436;2023-02-28T12:35:04;45.74;36.89;72.08;;
70077;Laerm;57448;51.490;5.436;2023-02-28T12:37:29;58.42;37.84;79.65;;
70077;Laerm;57448;51.490;5.436;2023-02-28T12:39:54;46.45;36.83;65.20;;
70077;Laerm;57448;51.490;5.436;2023-02-28T12:42:17;52.92;37.36;76.32;;
70077;Laerm;57448;51.490;5.436;2023-02-28T12:44:40;58.12;36.82;82.43;;
70077;Laerm;57448;51.490;5.436;2023-02-28T12:47:02;52.31;39.31;75.21;;
70077;Laerm;57448;51.490;5.436;2023-02-28T12:49:25;61.14;40.66;75.08;;
70077;Laerm;57448;51.490;5.436;2023-02-28T12:51:49;57.60;41.33;71.25;;
70077;Laerm;57448;51.490;5.436;2023-02-28T12:54:14;50.22;39.03;73.23;;
70077;Laerm;57448;51.490;5.436;2023-02-28T12:56:41;44.95;39.47;61.37;;
70077;Laerm;57448;51.490;5.436;2023-02-28T12:59:06;44.20;39.99;66.53;;
70077;Laerm;57448;51.490;5.436;2023-02-28T13:01:35;44.99;38.01;69.35;;
70077;Laerm;57448;51.490;5.436;2023-02-28T13:04:14;45.86;36.47;70.52;;
70077;Laerm;57448;51.490;5.436;2023-02-28T13:06:44;44.22;37.01;71.40;;
70077;Laerm;57448;51.490;5.436;2023-02-28T13:09:10;48.48;38.58;70.91;;
70077;Laerm;57448;51.490;5.436;2023-02-28T13:11:33;52.24;39.75;76.50;;
70077;Laerm;57448;51.490;5.436;2023-02-28T13:13:59;48.25;41.17;72.23;;
70077;Laerm;57448;51.490;5.436;2023-02-28T13:16:20;59.81;41.24;74.65;;
70077;Laerm;57448;51.490;5.436;2023-02-28T13:18:41;47.28;40.60;69.42;;
70077;Laerm;57448;51.490;5.436;2023-02-28T13:21:03;43.64;39.95;61.42;;
70077;Laerm;57448;51.490;5.436;2023-02-28T13:26:03;47.06;39.85;69.67;;
70077;Laerm;57448;51.490;5.436;2023-02-28T13:31:04;42.78;37.01;69.45;;
70077;Laerm;57448;51.490;5.436;2023-02-28T13:33:26;44.30;37.27;66.94;;
70077;Laerm;57448;51.490;5.436;2023-02-28T13:35:46;52.17;38.99;73.56;;
70077;Laerm;57448;51.490;5.436;2023-02-28T13:38:15;55.39;40.29;73.23;;